Capitol Logistics 994


FMMI
Ivato International Airport
Antananarivo, MG
FMEE
Roland Garros
St. Denis, FR

Activity Log

Date Flight Route Aircraft Duration
09/04/2020 CPX994 Not Available B763 1h 25m
03/30/2020 CPX994 TE1W TE UA401 UNKIK UNKI1R B763 1h 38m
12/20/2019 CPX994 TIGUR A401 UNKIK UNKIK1R B763 1h 28m
11/17/2019 CPX994 Not Available B763 1h 23m

Route Details

Aircraft Information
Primary: Boeing 767-300BDSF
Backup: Not Available
Route Data
Distance: 471nm
Sched. Duration: 1h 25m
Avg. Duration: 1h 28m (+4m)
Times Flown: 4
Recm'd Route: Not Available
Planned Altitude: 33,000ft
Origin Wx: FMMI 200230Z 14005KT 110V180 9999 FEW017 SCT020 14/11 Q1021 NOSIG
Dest. Wx: FMEE 200200Z AUTO 13010KT CAVOK 22/14 Q1016 NOSIG
Notes:

Financial History
Total Freight: 283,282lbs
Average Load: 70,821lbs/flt
Fuel Used: 53,538lbs
Avg. Fuel Used: 13,385lbs/flt
Fuel Expense: $42,830
Avg. Fuel Expense: $10,708
Avg. Fuel Cost: $0.80/lbs
Total Gross Income: $2,781,829
Pilot Pay: $806
Total Expenses: $300,646
Total Revenue: $2,437,177
Average Revenue: $695,457.33